Coastal 303 — WDE2540 — position and weather

sailwx.info

Track history (hours):
 
Tides and Currents Weather Stations Pressure Air Temp Water Temp Dewpoint Dewpoint Depression Visibility Wind Speed Wind Dir Waves Ship Positions

Coastal 303

Owner: U.S. United Ocean Services, LLC, Tampa, FL. More information available from US FCC via Universal Licensing System and Coast Guard Vessel Documentation Center.

Last reported at 2015-Jan-29 12:25 UTC. Time now 2015-Jan-29 14:28 UTC.
Position N 29°57' W 090°02'.

Length 180 m; draft 8.2 m.

Type: Towing. MMSI: 366751340.

Date/timePositionNaut miles runAvg speedWind from/ knotsBaromVisibWave heightAir tempDewpointWater temp
2015-Jan-29 12:25N 29°57' W 090°02'7 6.4
2015-Jan-29 11:17N 29°57' W 090°10'7 8.8
2015-Jan-29 10:32N 29°58' W 090°17'9 9.2
2015-Jan-29 09:33N 29°60' W 090°27'9 9.0
2015-Jan-29 08:33N 30°02' W 090°38'1010.4
2015-Jan-29 07:33N 29°59' W 090°49'9 9.4
2015-Jan-29 06:33N 30°07' W 090°55'5 4.3
2015-Jan-29 05:22N 30°08' W 091°01'0 0.0
2015-Jan-29 02:32N 30°08' W 091°01'0 0.0
2015-Jan-27 10:25N 30°08' W 091°01'0 0.0
2015-Jan-27 09:20N 30°08' W 091°01'0 0.0
2015-Jan-27 08:33N 30°08' W 091°01'0 0.0
2015-Jan-27 07:24N 30°08' W 091°01'0 0.0
2015-Jan-27 06:26N 30°08' W 091°01'0 0.0
2015-Jan-27 05:29N 30°08' W 091°01'0 0.0
2015-Jan-27 04:31N 30°08' W 091°01'11 0.7
2015-Jan-26 13:23N 30°01' W 090°50'  
2015-Jan-23 17:30N 27°40' W 082°36'7 7.8
2015-Jan-23 16:33N 27°47' W 082°31'8 8.1
2015-Jan-23 15:33N 27°53' W 082°26'2 1.8
2015-Jan-23 14:33N 27°55' W 082°25'0 0.0
2015-Jan-23 13:33N 27°55' W 082°25'0 0.0
2015-Jan-23 12:33N 27°55' W 082°25'0 0.0
2015-Jan-23 11:33N 27°55' W 082°25'0 0.0
2015-Jan-23 10:33N 27°55' W 082°25'0 0.0
2015-Jan-23 09:33N 27°55' W 082°25'0 0.0
2015-Jan-23 08:33N 27°55' W 082°25'0 0.0
2015-Jan-23 07:33N 27°55' W 082°25'0 0.0
2015-Jan-23 06:33N 27°55' W 082°25'0 0.0
2015-Jan-23 05:33N 27°55' W 082°25'0 0.0
2015-Jan-23 04:33N 27°55' W 082°25'0 0.0
2015-Jan-23 03:32N 27°55' W 082°25'0 0.0
2015-Jan-23 02:33N 27°55' W 082°25'0 0.0
2015-Jan-23 01:33N 27°55' W 082°25'0 0.0
2015-Jan-23 00:33N 27°55' W 082°25'0 0.0
2015-Jan-22 23:33N 27°55' W 082°25'0 0.0
2015-Jan-22 22:33N 27°55' W 082°25'0 0.0
2015-Jan-22 21:33N 27°55' W 082°25'0 0.0
2015-Jan-22 20:33N 27°55' W 082°25'0 0.0
2015-Jan-22 19:33N 27°55' W 082°25'0 0.0
2015-Jan-22 18:33N 27°55' W 082°25'0 0.0
2015-Jan-22 17:33N 27°55' W 082°25'0 0.0
2015-Jan-22 16:33N 27°55' W 082°25'0 0.0
2015-Jan-22 15:33N 27°55' W 082°25'0 0.0
2015-Jan-22 14:33N 27°55' W 082°25'0 0.0
2015-Jan-22 13:33N 27°55' W 082°25'0 0.0
2015-Jan-22 12:33N 27°55' W 082°25'0 0.0
2015-Jan-22 11:33N 27°55' W 082°25'0 0.0
2015-Jan-22 10:33N 27°55' W 082°25'0 0.0
2015-Jan-22 09:33N 27°55' W 082°25'0 0.0
2015-Jan-22 08:33N 27°55' W 082°25'2 2.3
2015-Jan-22 07:33N 27°53' W 082°26'5 4.8
2015-Jan-22 06:33N 27°48' W 082°25'0 0.5
2015-Jan-22 05:33N 27°48' W 082°25'0 0.0
2015-Jan-22 04:33N 27°48' W 082°25'0 0.0
2015-Jan-22 03:33N 27°48' W 082°25'0 0.0
2015-Jan-22 02:33N 27°48' W 082°25'0 0.0
2015-Jan-22 01:33N 27°48' W 082°25'0 0.0
2015-Jan-22 00:33N 27°48' W 082°25'0 0.0
2015-Jan-21 23:33N 27°48' W 082°25'0 0.2
2015-Jan-21 22:50N 27°48' W 082°25'0 0.0
2015-Jan-21 22:46N 27°48' W 082°25'0 0.0
2015-Jan-21 22:33N 27°48' W 082°25'0 0.0
2015-Jan-21 21:33N 27°48' W 082°25'0 0.0
2015-Jan-21 20:33N 27°48' W 082°25'0 0.0
2015-Jan-21 19:33N 27°48' W 082°25'0 0.0
2015-Jan-21 18:33N 27°48' W 082°25'0 0.0
2015-Jan-21 17:33N 27°48' W 082°25'0 0.0
2015-Jan-21 16:33N 27°48' W 082°25'0 0.0
2015-Jan-21 15:33N 27°48' W 082°25'0 0.0
2015-Jan-21 14:33N 27°48' W 082°25'0 0.0
2015-Jan-21 13:33N 27°48' W 082°25'0 0.0
2015-Jan-21 12:33N 27°48' W 082°25'0 0.0
2015-Jan-21 11:33N 27°48' W 082°25'0 0.0
2015-Jan-21 10:33N 27°48' W 082°25'0 0.0
2015-Jan-21 09:33N 27°48' W 082°25'0 0.0
2015-Jan-21 08:33N 27°48' W 082°25'0 0.0
2015-Jan-21 07:33N 27°48' W 082°25'0 0.0
2015-Jan-21 06:33N 27°48' W 082°25'0 0.0
2015-Jan-21 05:33N 27°48' W 082°25'0 0.0
2015-Jan-21 04:33N 27°48' W 082°25'0 0.0
2015-Jan-21 03:33N 27°48' W 082°25'0 0.0
2015-Jan-21 02:33N 27°48' W 082°25'0 0.0
2015-Jan-21 01:34N 27°48' W 082°25'0 0.0
2015-Jan-21 00:33N 27°48' W 082°25'0 0.0
2015-Jan-20 23:33N 27°48' W 082°25'0 0.0
2015-Jan-20 22:33N 27°48' W 082°25'0 0.0
2015-Jan-20 21:33N 27°48' W 082°25'0 0.0
2015-Jan-20 20:33N 27°48' W 082°25'0 0.0
2015-Jan-20 19:34N 27°48' W 082°25'0 0.0
2015-Jan-20 18:33N 27°48' W 082°25'0 0.0
2015-Jan-20 17:33N 27°48' W 082°25'0 0.1
2015-Jan-20 16:33N 27°48' W 082°25'3 2.6
2015-Jan-20 15:33N 27°48' W 082°28'8 8.3
2015-Jan-20 14:33N 27°42' W 082°33'  
Track history (hours):
 
Tides and Currents Weather Stations Pressure Air Temp Water Temp Dewpoint Dewpoint Depression Visibility Wind Speed Wind Dir Waves Ship Positions

Coastal 303

Owner: U.S. United Ocean Services, LLC, Tampa, FL. More information available from US FCC via Universal Licensing System and Coast Guard Vessel Documentation Center.

Last reported at 2015-Jan-29 12:25 UTC. Time now 2015-Jan-29 14:28 UTC.
Position N 29°57' W 090°02'.

Length 180 m; draft 8.2 m.

Type: Towing. MMSI: 366751340.

Date/timePositionNaut miles runAvg speedWind from/ knotsBaromVisibWave heightAir tempDewpointWater temp
2015-Jan-29 12:25N 29°57' W 090°02'7 6.4
2015-Jan-29 11:17N 29°57' W 090°10'7 8.8
2015-Jan-29 10:32N 29°58' W 090°17'9 9.2
2015-Jan-29 09:33N 29°60' W 090°27'9 9.0
2015-Jan-29 08:33N 30°02' W 090°38'1010.4
2015-Jan-29 07:33N 29°59' W 090°49'9 9.4
2015-Jan-29 06:33N 30°07' W 090°55'5 4.3
2015-Jan-29 05:22N 30°08' W 091°01'0 0.0
2015-Jan-29 02:32N 30°08' W 091°01'0 0.0
2015-Jan-27 10:25N 30°08' W 091°01'0 0.0
2015-Jan-27 09:20N 30°08' W 091°01'0 0.0
2015-Jan-27 08:33N 30°08' W 091°01'0 0.0
2015-Jan-27 07:24N 30°08' W 091°01'0 0.0
2015-Jan-27 06:26N 30°08' W 091°01'0 0.0
2015-Jan-27 05:29N 30°08' W 091°01'0 0.0
2015-Jan-27 04:31N 30°08' W 091°01'11 0.7
2015-Jan-26 13:23N 30°01' W 090°50'  
2015-Jan-23 17:30N 27°40' W 082°36'7 7.8
2015-Jan-23 16:33N 27°47' W 082°31'8 8.1
2015-Jan-23 15:33N 27°53' W 082°26'2 1.8
2015-Jan-23 14:33N 27°55' W 082°25'0 0.0
2015-Jan-23 13:33N 27°55' W 082°25'0 0.0
2015-Jan-23 12:33N 27°55' W 082°25'0 0.0
2015-Jan-23 11:33N 27°55' W 082°25'0 0.0
2015-Jan-23 10:33N 27°55' W 082°25'0 0.0
2015-Jan-23 09:33N 27°55' W 082°25'0 0.0
2015-Jan-23 08:33N 27°55' W 082°25'0 0.0
2015-Jan-23 07:33N 27°55' W 082°25'0 0.0
2015-Jan-23 06:33N 27°55' W 082°25'0 0.0
2015-Jan-23 05:33N 27°55' W 082°25'0 0.0
2015-Jan-23 04:33N 27°55' W 082°25'0 0.0
2015-Jan-23 03:32N 27°55' W 082°25'0 0.0
2015-Jan-23 02:33N 27°55' W 082°25'0 0.0
2015-Jan-23 01:33N 27°55' W 082°25'0 0.0
2015-Jan-23 00:33N 27°55' W 082°25'0 0.0
2015-Jan-22 23:33N 27°55' W 082°25'0 0.0
2015-Jan-22 22:33N 27°55' W 082°25'0 0.0
2015-Jan-22 21:33N 27°55' W 082°25'0 0.0
2015-Jan-22 20:33N 27°55' W 082°25'0 0.0
2015-Jan-22 19:33N 27°55' W 082°25'0 0.0
2015-Jan-22 18:33N 27°55' W 082°25'0 0.0
2015-Jan-22 17:33N 27°55' W 082°25'0 0.0
2015-Jan-22 16:33N 27°55' W 082°25'0 0.0
2015-Jan-22 15:33N 27°55' W 082°25'0 0.0
2015-Jan-22 14:33N 27°55' W 082°25'0 0.0
2015-Jan-22 13:33N 27°55' W 082°25'0 0.0
2015-Jan-22 12:33N 27°55' W 082°25'0 0.0
2015-Jan-22 11:33N 27°55' W 082°25'0 0.0
2015-Jan-22 10:33N 27°55' W 082°25'0 0.0
2015-Jan-22 09:33N 27°55' W 082°25'0 0.0
2015-Jan-22 08:33N 27°55' W 082°25'2 2.3
2015-Jan-22 07:33N 27°53' W 082°26'5 4.8
2015-Jan-22 06:33N 27°48' W 082°25'0 0.5
2015-Jan-22 05:33N 27°48' W 082°25'0 0.0
2015-Jan-22 04:33N 27°48' W 082°25'0 0.0
2015-Jan-22 03:33N 27°48' W 082°25'0 0.0
2015-Jan-22 02:33N 27°48' W 082°25'0 0.0
2015-Jan-22 01:33N 27°48' W 082°25'0 0.0
2015-Jan-22 00:33N 27°48' W 082°25'0 0.0
2015-Jan-21 23:33N 27°48' W 082°25'0 0.2
2015-Jan-21 22:50N 27°48' W 082°25'0 0.0
2015-Jan-21 22:46N 27°48' W 082°25'0 0.0
2015-Jan-21 22:33N 27°48' W 082°25'0 0.0
2015-Jan-21 21:33N 27°48' W 082°25'0 0.0
2015-Jan-21 20:33N 27°48' W 082°25'0 0.0
2015-Jan-21 19:33N 27°48' W 082°25'0 0.0
2015-Jan-21 18:33N 27°48' W 082°25'0 0.0
2015-Jan-21 17:33N 27°48' W 082°25'0 0.0
2015-Jan-21 16:33N 27°48' W 082°25'0 0.0
2015-Jan-21 15:33N 27°48' W 082°25'0 0.0
2015-Jan-21 14:33N 27°48' W 082°25'0 0.0
2015-Jan-21 13:33N 27°48' W 082°25'0 0.0
2015-Jan-21 12:33N 27°48' W 082°25'0 0.0
2015-Jan-21 11:33N 27°48' W 082°25'0 0.0
2015-Jan-21 10:33N 27°48' W 082°25'0 0.0
2015-Jan-21 09:33N 27°48' W 082°25'0 0.0
2015-Jan-21 08:33N 27°48' W 082°25'0 0.0
2015-Jan-21 07:33N 27°48' W 082°25'0 0.0
2015-Jan-21 06:33N 27°48' W 082°25'0 0.0
2015-Jan-21 05:33N 27°48' W 082°25'0 0.0
2015-Jan-21 04:33N 27°48' W 082°25'0 0.0
2015-Jan-21 03:33N 27°48' W 082°25'0 0.0
2015-Jan-21 02:33N 27°48' W 082°25'0 0.0
2015-Jan-21 01:34N 27°48' W 082°25'0 0.0
2015-Jan-21 00:33N 27°48' W 082°25'0 0.0
2015-Jan-20 23:33N 27°48' W 082°25'0 0.0
2015-Jan-20 22:33N 27°48' W 082°25'0 0.0
2015-Jan-20 21:33N 27°48' W 082°25'0 0.0
2015-Jan-20 20:33N 27°48' W 082°25'0 0.0
2015-Jan-20 19:34N 27°48' W 082°25'0 0.0
2015-Jan-20 18:33N 27°48' W 082°25'0 0.0
2015-Jan-20 17:33N 27°48' W 082°25'0 0.1
2015-Jan-20 16:33N 27°48' W 082°25'3 2.6
2015-Jan-20 15:33N 27°48' W 082°28'8 8.3
2015-Jan-20 14:33N 27°42' W 082°33'  

Dump ship's entire track history